createdAt,value
2016-09-02T00:00:41.624Z,56.24
2016-09-02T00:01:52.478Z,56.43
2016-09-02T00:03:04.760Z,56.43
2016-09-02T00:04:16.315Z,56.43
2016-09-02T00:05:28.584Z,56.43
2016-09-02T00:06:40.131Z,56.43
2016-09-02T00:07:52.390Z,56.43
2016-09-02T00:09:04.677Z,56.81
2016-09-02T00:10:16.941Z,56.79
2016-09-02T00:11:28.526Z,56.88
2016-09-02T00:12:40.798Z,56.88
2016-09-02T00:13:53.075Z,56.69
2016-09-02T00:15:05.326Z,56.69
2016-09-02T00:16:17.598Z,56.88
2016-09-02T00:17:29.849Z,56.88
2016-09-02T00:18:41.413Z,56.88
2016-09-02T00:19:52.984Z,56.4
2016-09-02T00:21:05.262Z,56.4
2016-09-02T00:22:16.155Z,56.49
2016-09-02T00:23:27.725Z,56.4
2016-09-02T00:24:39.296Z,56.59
2016-09-02T00:25:51.562Z,56.59
2016-09-02T00:27:03.121Z,56.85
2016-09-02T00:28:13.985Z,56.85
2016-09-02T00:29:25.545Z,56.47
2016-09-02T00:30:37.101Z,56.27
2016-09-02T00:31:49.374Z,56.47
2016-09-02T00:33:00.428Z,56.57
2016-09-02T00:34:11.992Z,56.37
2016-09-02T00:35:23.556Z,56.47
2016-09-02T00:36:35.830Z,56.57
2016-09-02T00:37:48.097Z,56.66
2016-09-02T00:39:00.348Z,56.66
2016-09-02T00:40:12.004Z,56.76
2016-09-02T00:41:23.575Z,56.76
2016-09-02T00:42:35.830Z,56.76
2016-09-02T00:43:46.709Z,56.63
2016-09-02T00:44:58.967Z,56.66
2016-09-02T00:46:11.308Z,56.57
2016-09-02T00:47:22.878Z,56.57
2016-09-02T00:48:33.733Z,56.85
2016-09-02T00:49:45.310Z,56.57
2016-09-02T00:50:57.594Z,56.57
2016-09-02T00:52:08.447Z,56.35
2016-09-02T00:53:20.018Z,56.37
2016-09-02T00:54:30.879Z,56.47
2016-09-02T00:55:43.134Z,56.44
2016-09-02T00:56:53.988Z,56.57
2016-09-02T00:58:04.156Z,56.54
2016-09-02T00:59:15.019Z,56.35
2016-09-02T01:00:27.101Z,56.54
2016-09-02T01:01:38.672Z,56.54
2016-09-02T01:02:50.217Z,56.35
2016-09-02T01:04:01.781Z,56.44
2016-09-02T01:05:14.044Z,56.35
2016-09-02T01:06:25.624Z,56.44
2016-09-02T01:07:36.482Z,56.54
2016-09-02T01:08:48.727Z,56.54
2016-09-02T01:10:00.995Z,56.54
2016-09-02T01:11:12.259Z,56.54
2016-09-02T01:12:22.407Z,56.54
2016-09-02T01:13:33.989Z,56.44
2016-09-02T01:14:45.536Z,56.63
2016-09-02T01:15:57.796Z,56.54
2016-09-02T01:17:10.070Z,56.73
2016-09-02T01:18:21.637Z,56.54
2016-09-02T01:19:33.892Z,56.63
2016-09-02T01:20:46.144Z,56.73
2016-09-02T01:21:57.005Z,56.82
2016-09-02T01:23:08.569Z,56.82
2016-09-02T01:24:20.826Z,56.82
2016-09-02T01:25:32.373Z,56.63
2016-09-02T01:26:43.240Z,55.96
2016-09-02T01:27:55.492Z,56.05
2016-09-02T01:29:07.056Z,56.54
2016-09-02T01:30:19.308Z,55.96
2016-09-02T01:31:30.179Z,56.37
2016-09-02T01:32:41.742Z,56.73
2016-09-02T01:33:53.995Z,56.63
2016-09-02T01:35:06.340Z,56.85
2016-09-02T01:36:17.211Z,56.57
2016-09-02T01:37:29.474Z,56.57
2016-09-02T01:38:41.027Z,56.47
2016-09-02T01:39:53.302Z,56.37
2016-09-02T01:41:05.570Z,55.89
2016-09-02T01:42:17.836Z,56.09
2016-09-02T01:43:30.138Z,56.27
2016-09-02T01:44:42.405Z,56.27
2016-09-02T01:45:54.671Z,56.76
2016-09-02T01:47:06.928Z,56.66
2016-09-02T01:48:19.219Z,56.57
2016-09-02T01:49:30.112Z,56.57
2016-09-02T01:50:40.974Z,56.47
2016-09-02T01:51:51.826Z,56.76
2016-09-02T01:53:04.097Z,56.76
2016-09-02T01:54:16.361Z,56.76
2016-09-02T01:55:27.921Z,56.66
2016-09-02T01:56:38.078Z,56.76
2016-09-02T01:57:50.350Z,56.57
2016-09-02T01:59:01.206Z,56.57
2016-09-02T02:00:12.773Z,57.05
2016-09-02T02:01:24.341Z,56.85
2016-09-02T02:02:35.916Z,56.85
2016-09-02T02:03:47.455Z,56.85
2016-09-02T02:04:59.014Z,56.85
2016-09-02T02:06:09.873Z,56.85
2016-09-02T02:07:20.735Z,56.57
2016-09-02T02:08:32.300Z,56.66
2016-09-02T02:09:44.572Z,56.66
2016-09-02T02:10:55.435Z,56.76
2016-09-02T02:12:06.990Z,56.76
2016-09-02T02:13:17.839Z,56.66
2016-09-02T02:14:30.099Z,56.85
2016-09-02T02:15:42.368Z,56.73
2016-09-02T02:16:52.521Z,56.63
2016-09-02T02:18:04.799Z,56.63
2016-09-02T02:19:17.056Z,56.54
2016-09-02T02:20:29.317Z,56.63
2016-09-02T02:21:41.577Z,56.66
2016-09-02T02:22:53.141Z,56.44
2016-09-02T02:24:05.398Z,56.35
2016-09-02T02:25:15.566Z,56.15
2016-09-02T02:26:27.141Z,56.35
2016-09-02T02:27:38.698Z,56.44
2016-09-02T02:28:50.257Z,56.44
2016-09-02T02:30:02.515Z,56.44
2016-09-02T02:31:13.396Z,56.35
2016-09-02T02:32:25.660Z,56.35
2016-09-02T02:33:37.212Z,56.25
2016-09-02T02:34:48.768Z,56.15
2016-09-02T02:36:00.337Z,56.35
2016-09-02T02:37:12.602Z,56.54
2016-09-02T02:38:24.857Z,56.54
2016-09-02T02:39:35.005Z,56.73
2016-09-02T02:40:46.567Z,56.63
2016-09-02T02:41:58.825Z,56.73
2016-09-02T02:43:11.088Z,56.73
2016-09-02T02:44:22.649Z,56.54
2016-09-02T02:45:34.210Z,56.44
2016-09-02T02:46:46.463Z,56.44
2016-09-02T02:47:57.323Z,56.54
2016-09-02T02:49:09.591Z,56.44
2016-09-02T02:50:21.859Z,56.73
2016-09-02T02:51:32.708Z,56.73
2016-09-02T02:52:44.960Z,56.82
2016-09-02T02:53:56.521Z,56.82
2016-09-02T02:55:08.785Z,56.92
2016-09-02T02:56:21.037Z,56.63
2016-09-02T02:57:31.898Z,56.54
2016-09-02T02:58:44.160Z,56.54
2016-09-02T02:59:56.421Z,56.54
2016-09-02T03:32:06.401Z,54.88
2016-09-02T03:33:17.951Z,55.74
2016-09-02T03:34:29.499Z,56.31
2016-09-02T03:35:41.565Z,56.96
2016-09-02T03:36:52.431Z,57.37
2016-09-02T03:38:04.695Z,57.65
2016-09-02T03:39:16.245Z,57.56
2016-09-02T03:40:28.499Z,57.65
2016-09-02T03:41:40.771Z,57.75
2016-09-02T03:42:51.630Z,57.88
2016-09-02T03:44:03.200Z,57.97
2016-09-02T03:45:14.755Z,57.78
2016-09-02T03:46:26.346Z,58.17
2016-09-02T03:47:37.902Z,57.71
2016-09-02T03:48:50.171Z,57.9
2016-09-02T03:50:02.436Z,57.33
2016-09-02T03:51:14.534Z,57.55
2016-09-02T03:52:24.691Z,57.55
2016-09-02T03:53:36.951Z,57.55
2016-09-02T03:54:48.528Z,57.65
2016-09-02T03:56:00.082Z,57.75
2016-09-02T03:57:11.643Z,57.1
2016-09-02T03:58:22.493Z,57.2
2016-09-02T03:59:34.046Z,56.91
2016-09-02T04:00:46.306Z,57.1
2016-09-02T04:01:57.185Z,57.2
2016-09-02T04:03:08.046Z,56.81
2016-09-02T04:04:20.319Z,56.91
2016-09-02T04:05:32.575Z,57.32
2016-09-02T04:06:44.845Z,57.13
2016-09-02T04:07:56.403Z,57.32
2016-09-02T04:09:07.950Z,57.51
2016-09-02T04:10:20.222Z,57.32
2016-09-02T04:11:31.781Z,56.65
2016-09-02T04:12:44.044Z,56.55
2016-09-02T04:13:55.603Z,56.55
2016-09-02T04:15:08.161Z,56.65
2016-09-02T04:16:20.432Z,56.77
2016-09-02T04:17:32.708Z,56.48
2016-09-02T04:18:44.973Z,56.1
2016-09-02T04:19:56.546Z,56.2
2016-09-02T04:21:08.813Z,56.29
2016-09-02T04:22:21.073Z,56.67
2016-09-02T04:23:32.642Z,56.58
2016-09-02T04:24:43.528Z,56.48
2016-09-02T04:25:55.083Z,56.38
2016-09-02T04:27:07.340Z,55.81
2016-09-02T04:28:18.892Z,56.03
2016-09-02T04:29:31.160Z,56.6
2016-09-02T04:30:43.448Z,55.93
2016-09-02T04:31:55.056Z,56.41
2016-09-02T04:33:07.306Z,55.96
2016-09-02T04:34:19.573Z,55.67
2016-09-02T04:35:31.854Z,55.77
2016-09-02T04:36:44.330Z,55.67
2016-09-02T04:37:55.883Z,55.48
2016-09-02T04:39:06.729Z,55.87
2016-09-02T04:40:18.991Z,56.05
2016-09-02T04:41:30.567Z,55.99
2016-09-02T04:42:42.829Z,55.87
2016-09-02T04:43:54.387Z,55.79
2016-09-02T04:45:05.949Z,55.31
2016-09-02T04:46:18.214Z,55.15
2016-09-02T04:47:29.056Z,55.34
2016-09-02T04:48:41.314Z,54.76
2016-09-02T04:49:53.575Z,55.18
2016-09-02T04:51:05.148Z,55.27
2016-09-02T04:52:17.422Z,55.2
2016-09-02T04:53:28.994Z,55.2
2016-09-02T04:54:41.263Z,55.4
2016-09-02T04:55:53.532Z,54.91
2016-09-02T04:57:05.106Z,55.68
2016-09-02T04:58:17.601Z,55.68
2016-09-02T04:59:28.484Z,55.68
2016-09-02T05:00:40.751Z,56.26
2016-09-02T05:01:51.612Z,57.01
2016-09-02T05:03:03.874Z,56.72
2016-09-02T05:04:15.436Z,56.72
2016-09-02T05:05:26.308Z,56.81
2016-09-02T05:06:38.574Z,56.04
2016-09-02T05:07:50.832Z,56.33
2016-09-02T05:09:03.090Z,56.81
2016-09-02T05:10:15.344Z,56.72
2016-09-02T05:11:26.896Z,56.91
2016-09-02T05:12:38.469Z,56.43
2016-09-02T05:13:50.735Z,56.14
2016-09-02T05:15:01.582Z,56.04
2016-09-02T05:16:13.850Z,55.94
2016-09-02T05:17:25.417Z,55.98
2016-09-02T05:18:36.978Z,55.78
2016-09-02T05:19:49.239Z,55.68
2016-09-02T05:21:01.515Z,55.2
2016-09-02T05:22:13.758Z,55.23
2016-09-02T05:23:23.914Z,55.26
2016-09-02T05:24:36.169Z,55.26
2016-09-02T05:25:47.021Z,55.16
2016-09-02T05:26:59.280Z,55.35
2016-09-02T05:28:10.851Z,55.45
2016-09-02T05:29:22.416Z,55.26
2016-09-02T05:30:34.671Z,55.26
2016-09-02T05:31:46.234Z,55.45
2016-09-02T05:32:57.795Z,55.09
2016-09-02T05:34:10.054Z,55.09
2016-09-02T05:35:20.908Z,54.25
2016-09-02T05:36:34.829Z,53.99
2016-09-02T05:37:47.086Z,53.53
2016-09-02T05:38:58.642Z,53.26
2016-09-02T05:40:11.162Z,54.13
2016-09-02T05:41:22.731Z,54.3
2016-09-02T05:42:35.006Z,54.88
2016-09-02T05:43:46.598Z,55.46
2016-09-02T05:44:58.206Z,55.24
2016-09-02T05:46:09.582Z,55.17
2016-09-02T05:47:21.139Z,54.69
2016-09-02T05:48:32.695Z,54.03
2016-09-02T05:49:44.254Z,53.85
2016-09-02T05:50:55.814Z,54.26
2016-09-02T05:52:07.373Z,54.52
2016-09-02T05:53:19.644Z,55.4
2016-09-02T05:54:31.914Z,55
2016-09-02T05:55:43.485Z,55.1
2016-09-02T05:56:53.649Z,54.71
2016-09-02T05:58:05.232Z,54.62
2016-09-02T05:59:16.874Z,54.64
2016-09-02T06:00:27.731Z,55.2
2016-09-02T06:01:40.007Z,55.4
2016-09-02T06:02:50.877Z,55.1
2016-09-02T06:04:02.461Z,55.58
2016-09-02T06:05:13.351Z,55.4
2016-09-02T06:06:26.218Z,55.32
2016-09-02T06:07:38.494Z,55.13
2016-09-02T06:08:49.371Z,55.32
2016-09-02T06:10:01.657Z,55.32
2016-09-02T06:11:12.734Z,55.62
2016-09-02T06:12:24.300Z,55.32
2016-09-02T06:13:35.179Z,55.22
2016-09-02T06:14:46.729Z,55.13
2016-09-02T06:15:58.986Z,55.22
2016-09-02T06:17:10.548Z,55.13
2016-09-02T06:18:21.431Z,55.26
2016-09-02T06:19:32.997Z,55.35
2016-09-02T06:20:44.574Z,55.35
2016-09-02T06:21:56.846Z,55.16
2016-09-02T06:23:08.428Z,55.16
2016-09-02T06:24:20.016Z,55.26
2016-09-02T06:25:31.570Z,55.54
2016-09-02T06:26:43.843Z,55.54
2016-09-02T06:27:56.114Z,55.54
2016-09-02T06:29:08.406Z,55.26
2016-09-02T06:30:19.972Z,55.06
2016-09-02T06:31:30.825Z,55.16
2016-09-02T06:32:40.991Z,55.26
2016-09-02T06:33:53.254Z,55.44
2016-09-02T06:35:05.101Z,55.28
2016-09-02T06:36:16.660Z,54.99
2016-09-02T06:37:27.524Z,54.96
2016-09-02T06:38:39.094Z,54.6
2016-09-02T06:39:51.358Z,54.7
2016-09-02T06:41:03.625Z,54.8
2016-09-02T06:42:15.906Z,54.7
2016-09-02T06:43:26.079Z,54.8
2016-09-02T06:44:37.641Z,54.7
2016-09-02T06:45:48.526Z,54.7
2016-09-02T06:47:00.798Z,54.34
2016-09-02T06:48:13.075Z,54.24
2016-09-02T06:49:24.662Z,54.24
2016-09-02T06:50:36.932Z,54.14
2016-09-02T06:51:47.800Z,54.17
2016-09-02T06:52:59.373Z,54.27
2016-09-02T06:54:09.550Z,54.27
2016-09-02T06:55:21.120Z,54
2016-09-02T06:56:32.682Z,53.64
2016-09-02T06:57:42.146Z,53.74
2016-09-02T06:58:52.315Z,53.35
2016-09-02T07:00:02.702Z,53.96
2016-09-02T07:01:14.999Z,52.89
2016-09-02T07:02:26.578Z,53.01
2016-09-02T07:03:38.147Z,52.55
2016-09-02T07:04:50.420Z,53.23
2016-09-02T07:06:01.982Z,53.16
2016-09-02T07:07:12.864Z,52.28
2016-09-02T07:08:24.515Z,52.38
2016-09-02T07:09:35.385Z,52.4
2016-09-02T07:10:46.943Z,52.7
2016-09-02T07:11:58.506Z,52.8
2016-09-02T07:13:10.072Z,53.09
2016-09-02T07:14:22.349Z,53.38
2016-09-02T07:15:32.514Z,52.8
2016-09-02T07:16:44.082Z,52.8
2016-09-02T07:17:55.655Z,53.19
2016-09-02T07:19:07.235Z,53.36
2016-09-02T07:20:18.793Z,53.09
2016-09-02T07:21:30.389Z,53.09
2016-09-02T07:22:42.687Z,53.28
2016-09-02T07:23:54.956Z,53.77
2016-09-02T07:25:06.558Z,53.48
2016-09-02T07:26:17.421Z,53.87
2016-09-02T07:27:29.687Z,54.06
2016-09-02T07:28:41.255Z,53.58
2016-09-02T07:29:53.537Z,54.36
2016-09-02T07:31:05.098Z,54.13
2016-09-02T07:32:15.264Z,54.43
2016-09-02T07:33:26.129Z,54.33
2016-09-02T07:34:37.007Z,54.3
2016-09-02T07:35:49.290Z,54.6
2016-09-02T07:37:00.859Z,54.79
2016-09-02T07:38:11.733Z,54.86
2016-09-02T07:39:23.310Z,54.89
2016-09-02T07:40:35.577Z,54.89
2016-09-02T07:41:46.439Z,54.86
2016-09-02T07:42:58.005Z,54.96
2016-09-02T07:44:08.871Z,55.64
2016-09-02T07:45:18.331Z,55.54
2016-09-02T07:46:29.908Z,55.44
2016-09-02T07:47:42.205Z,55.54
2016-09-02T07:48:54.483Z,55.61
2016-09-02T07:50:06.061Z,55.32
2016-09-02T07:51:17.888Z,55.41
2016-09-02T07:52:30.164Z,55.88
2016-09-02T07:53:42.453Z,56.07
2016-09-02T07:54:54.703Z,56.16
2016-09-02T07:56:05.571Z,55.94
2016-09-02T07:57:17.167Z,56.14
2016-09-02T07:58:28.728Z,56.14
2016-09-02T07:59:40.995Z,56.21
2016-09-02T08:00:51.168Z,56.01
2016-09-02T08:02:02.025Z,56.21
2016-09-02T08:03:14.285Z,55.69
2016-09-02T08:04:25.860Z,55.82
2016-09-02T08:05:37.429Z,56.09
2016-09-02T08:06:49.005Z,55.79
2016-09-02T08:08:01.279Z,55.79
2016-09-02T08:09:12.139Z,55.6
2016-09-02T08:10:23.701Z,55.89
2016-09-02T08:11:35.327Z,55.6
2016-09-02T08:12:46.204Z,55.6
2016-09-02T08:13:58.464Z,55.5
2016-09-02T08:15:10.028Z,55.21
2016-09-02T08:16:21.613Z,55.5
2016-09-02T08:17:33.203Z,55.11
2016-09-02T08:18:44.079Z,55.53
2016-09-02T08:19:54.958Z,55.04
2016-09-02T08:21:06.528Z,54.85
2016-09-02T08:22:18.138Z,54.85
2016-09-02T08:23:29.701Z,54.68
2016-09-02T08:24:39.867Z,54.49
2016-09-02T08:25:50.045Z,54.29
2016-09-02T08:27:01.605Z,54.29
2016-09-02T08:28:12.473Z,54.29
2016-09-02T08:29:24.036Z,54.29
2016-09-02T08:30:34.891Z,54.22
2016-09-02T08:31:45.765Z,54.22
2016-09-02T08:32:58.041Z,54.22
2016-09-02T08:34:09.626Z,54.42
2016-09-02T08:35:20.519Z,53.86
2016-09-02T08:36:32.907Z,53.86
2016-09-02T08:37:44.522Z,53.77
2016-09-02T08:38:56.083Z,53.86
2016-09-02T08:40:06.952Z,53.57
2016-09-02T08:41:17.871Z,53.67
2016-09-02T08:42:29.435Z,53.79
2016-09-02T08:43:40.308Z,53.69
2016-09-02T08:44:52.593Z,53.4
2016-09-02T08:46:02.745Z,53.59
2016-09-02T08:47:14.304Z,53.69
2016-09-02T08:48:26.575Z,53.79
2016-09-02T08:49:38.875Z,54.08
2016-09-02T08:50:50.446Z,53.99
2016-09-02T08:52:02.016Z,54.47
2016-09-02T08:53:13.615Z,54.57
2016-09-02T08:54:25.203Z,54.47
2016-09-02T08:55:36.772Z,53.99
2016-09-02T08:56:49.031Z,54.18
2016-09-02T08:57:59.893Z,54.47
2016-09-02T08:59:12.274Z,54.35
2016-09-02T09:00:23.834Z,54.15
2016-09-02T09:01:36.114Z,54.54
2016-09-02T09:02:46.276Z,54.15
2016-09-02T09:03:58.541Z,54.44
2016-09-02T09:05:10.223Z,53.67
2016-09-02T09:06:21.790Z,53.62
2016-09-02T09:07:33.352Z,53.79
2016-09-02T09:08:44.217Z,54.11
2016-09-02T09:09:55.779Z,53.62
2016-09-02T09:11:06.643Z,53.69
2016-09-02T09:12:18.910Z,53.72
2016-09-02T09:13:29.789Z,53.14
2016-09-02T09:14:41.353Z,52.77
2016-09-02T09:15:53.618Z,52.87
2016-09-02T09:17:05.229Z,52.97
2016-09-02T09:18:16.112Z,52.89
2016-09-02T09:19:28.390Z,52.99
2016-09-02T09:20:39.951Z,52.8
2016-09-02T09:21:50.848Z,52.4
2016-09-02T09:23:01.729Z,53.09
2016-09-02T09:24:13.310Z,52.8
2016-09-02T09:25:24.873Z,52.8
2016-09-02T09:26:35.754Z,52.83
2016-09-02T09:27:46.635Z,53.11
2016-09-02T09:28:58.189Z,52.92
2016-09-02T09:30:10.488Z,52.83
2016-09-02T09:31:22.087Z,53.24
2016-09-02T09:32:32.983Z,53.14
2016-09-02T09:33:44.549Z,53.07
2016-09-02T09:34:55.417Z,53.36
2016-09-02T09:36:06.299Z,53.27
2016-09-02T09:37:17.876Z,53.17
2016-09-02T09:38:29.447Z,53.39
2016-09-02T09:39:41.031Z,53.49
2016-09-02T09:40:51.915Z,53.29
2016-09-02T09:42:03.501Z,53
2016-09-02T09:43:15.784Z,53.09
2016-09-02T09:44:26.648Z,53.22
2016-09-02T09:45:38.219Z,53.03
2016-09-02T09:46:49.109Z,53.22
2016-09-02T09:48:01.369Z,53.03
2016-09-02T09:49:13.647Z,53.22
2016-09-02T09:50:25.225Z,53.03
2016-09-02T09:51:35.385Z,53.44
2016-09-02T09:52:46.258Z,53.22
2016-09-02T09:53:56.425Z,53.44
2016-09-02T09:55:08.203Z,53.54
2016-09-02T09:56:19.788Z,53.34
2016-09-02T09:57:30.650Z,53.05
2016-09-02T09:58:42.932Z,52.69
2016-09-02T09:59:54.499Z,52.59
2016-09-02T10:01:04.659Z,52.88
2016-09-02T10:02:16.235Z,52.59
2016-09-02T10:03:27.819Z,52.78
2016-09-02T10:04:39.372Z,52.39
2016-09-02T10:05:49.538Z,52.59
2016-09-02T10:07:01.104Z,52.88
2016-09-02T10:08:12.673Z,53.69
2016-09-02T10:09:23.537Z,52.98
2016-09-02T10:10:34.404Z,52.98
2016-09-02T10:11:45.293Z,52.71
2016-09-02T10:12:56.868Z,52.51
2016-09-02T10:14:09.141Z,52.54
2016-09-02T10:15:20.704Z,52.73
2016-09-02T10:16:31.867Z,52.64
2016-09-02T10:17:44.155Z,52.44
2016-09-02T10:18:56.431Z,52.93
2016-09-02T10:20:08.714Z,52.64
2016-09-02T10:21:20.287Z,52.54
2016-09-02T10:22:31.161Z,52.64
2016-09-02T10:23:43.449Z,52.83
2016-09-02T10:24:55.028Z,52.96
2016-09-02T10:26:07.313Z,52.67
2016-09-02T10:27:19.595Z,52.86
2016-09-02T10:28:31.871Z,52.86
2016-09-02T10:29:43.458Z,52.67
2016-09-02T10:30:55.736Z,52.47
2016-09-02T10:32:07.342Z,52.56
2016-09-02T10:33:17.517Z,52.67
2016-09-02T10:34:28.381Z,53.08
2016-09-02T10:35:39.257Z,52.4
2016-09-02T10:36:50.848Z,52.98
2016-09-02T10:38:02.416Z,52.89
2016-09-02T10:39:12.578Z,52.59
2016-09-02T10:40:24.851Z,52.89
2016-09-02T10:41:35.066Z,52.89
2016-09-02T10:42:46.634Z,52.89
2016-09-02T10:43:58.207Z,52.59
2016-09-02T10:45:09.077Z,52.42
2016-09-02T10:46:19.938Z,52.89
2016-09-02T10:47:31.539Z,52.72
2016-09-02T10:48:41.711Z,52.91
2016-09-02T10:49:53.995Z,52.62
2016-09-02T10:51:05.577Z,52.52
2016-09-02T10:52:17.156Z,52.52
2016-09-02T10:53:29.445Z,52.81
2016-09-02T10:54:41.015Z,52.91
2016-09-02T10:55:52.662Z,52.81
2016-09-02T10:57:04.274Z,52.81
2016-09-02T10:58:15.843Z,52.74
2016-09-02T10:59:26.722Z,52.45
2016-09-02T11:00:38.996Z,52.62
2016-09-02T11:01:50.571Z,52.64
2016-09-02T11:03:01.434Z,52.64
2016-09-02T11:04:12.318Z,52.94
2016-09-02T11:05:23.921Z,52.84
2016-09-02T11:06:35.493Z,52.84
2016-09-02T11:07:47.764Z,52.84
2016-09-02T11:08:58.651Z,52.84
2016-09-02T11:10:10.219Z,52.64
2016-09-02T11:11:21.783Z,52.74
2016-09-02T11:12:34.062Z,52.57
2016-09-02T11:13:46.332Z,52.37
2016-09-02T11:14:58.610Z,52.47
2016-09-02T11:16:11.623Z,52.08
2016-09-02T11:17:23.188Z,52.11
2016-09-02T11:18:34.776Z,52.4
2016-09-02T11:19:45.647Z,52.3
2016-09-02T11:20:57.224Z,52.11
2016-09-02T11:22:09.491Z,52.47
2016-09-02T11:23:21.072Z,52.3
2016-09-02T11:24:31.945Z,52.67
2016-09-02T11:25:44.213Z,52.3
2016-09-02T11:26:55.080Z,52.11
2016-09-02T11:28:07.375Z,52.3
2016-09-02T11:29:19.661Z,52.01
2016-09-02T11:30:31.228Z,52.13
2016-09-02T11:31:42.808Z,52.23
2016-09-02T11:32:55.087Z,52.42
2016-09-02T11:34:07.378Z,51.86
2016-09-02T11:35:18.255Z,51.67
2016-09-02T11:36:30.574Z,51.89
2016-09-02T11:37:42.134Z,51.79
2016-09-02T11:38:53.746Z,51.89
2016-09-02T11:40:05.319Z,51.89
2016-09-02T11:41:16.909Z,51.59
2016-09-02T11:42:27.779Z,51.89
2016-09-02T11:43:38.672Z,51.69
2016-09-02T11:44:50.241Z,52.21
2016-09-02T11:46:02.516Z,51.62
2016-09-02T11:47:14.098Z,52.01
2016-09-02T11:48:24.970Z,52.31
2016-09-02T11:49:35.842Z,52.38
2016-09-02T11:50:47.411Z,52.35
2016-09-02T11:51:59.005Z,52.45
2016-09-02T11:53:11.290Z,52.65
2016-09-02T11:54:22.873Z,52.25
2016-09-02T11:55:33.741Z,52.55
2016-09-02T11:56:46.010Z,52.75
2016-09-02T11:57:57.604Z,52.84
2016-09-02T11:59:09.204Z,53.04
2016-09-02T12:00:21.486Z,52.55
2016-09-02T12:01:32.359Z,52.35
2016-09-02T12:02:44.641Z,52.45
2016-09-02T12:03:55.508Z,52.92
2016-09-02T12:05:07.101Z,53.7
2016-09-02T12:06:18.047Z,53.09
2016-09-02T12:07:28.924Z,53.65
2016-09-02T12:08:40.494Z,52.89
2016-09-02T12:09:52.773Z,52.99
2016-09-02T12:11:02.943Z,52.3
2016-09-02T12:12:15.222Z,52.3
2016-09-02T12:13:25.401Z,52.33
2016-09-02T12:14:36.973Z,52.13
2016-09-02T12:15:49.255Z,53.6
2016-09-02T12:17:01.534Z,52.69
2016-09-02T12:18:12.409Z,53.09
2016-09-02T12:19:23.276Z,53.45
2016-09-02T12:20:34.144Z,53.55
2016-09-02T12:21:45.709Z,53.16
2016-09-02T12:22:57.313Z,52.67
2016-09-02T12:24:09.668Z,52.2
2016-09-02T12:25:21.955Z,52.23
2016-09-02T12:26:33.526Z,52.45
2016-09-02T12:27:44.394Z,52.52
2016-09-02T12:28:56.676Z,52.52
2016-09-02T12:30:07.547Z,52.59
2016-09-02T12:31:18.414Z,53.38
2016-09-02T12:32:29.290Z,52.96
2016-09-02T12:33:40.193Z,52.3
2016-09-02T12:34:51.760Z,52.69
2016-09-02T12:36:02.621Z,52.42
2016-09-02T12:37:14.231Z,52.52
2016-09-02T12:38:25.814Z,52.25
2016-09-02T12:39:37.385Z,52.92
2016-09-02T12:40:48.247Z,52.84
2016-09-02T12:41:59.819Z,52.13
2016-09-02T12:43:11.396Z,52.13
2016-09-02T12:44:22.990Z,51.96
2016-09-02T12:45:34.809Z,51.4
2016-09-02T12:46:46.387Z,51.69
2016-09-02T12:47:57.973Z,51.22
2016-09-02T12:49:09.573Z,51.42
2016-09-02T12:50:21.851Z,51.35
2016-09-02T12:51:32.733Z,51.25
2016-09-02T12:52:45.031Z,51.25
2016-09-02T12:53:56.596Z,50.68
2016-09-02T12:55:07.077Z,50.68
2016-09-02T12:56:18.642Z,51
2016-09-02T12:57:30.908Z,50.81
2016-09-02T12:58:42.492Z,50.51
2016-09-02T12:59:54.808Z,50.44
2016-09-02T13:01:06.373Z,50.54
2016-09-02T13:02:16.555Z,50.54
2016-09-02T13:03:26.749Z,50.44
2016-09-02T13:04:38.320Z,50.56
2016-09-02T13:05:49.899Z,50.36
2016-09-02T13:07:00.786Z,50.76
2016-09-02T13:08:12.365Z,50.66
2016-09-02T13:09:23.939Z,51.25
2016-09-02T13:10:35.512Z,51.62
2016-09-02T13:11:47.089Z,51.81
2016-09-02T13:12:58.680Z,52.58
2016-09-02T13:14:09.569Z,52.26
2016-09-02T13:15:22.067Z,52.43
2016-09-02T13:16:33.659Z,52.89
2016-09-02T13:17:45.222Z,52.8
2016-09-02T13:18:57.508Z,53.75
2016-09-02T13:20:09.775Z,53.14
2016-09-02T13:21:21.534Z,53.6
2016-09-02T13:22:33.807Z,54.07
2016-09-02T13:23:46.085Z,54.24
2016-09-02T13:24:57.656Z,54.04
2016-09-02T13:26:08.539Z,54.8
2016-09-02T13:27:20.807Z,54.68
2016-09-02T13:28:33.093Z,54.75
2016-09-02T13:29:42.559Z,54.85
2016-09-02T13:30:54.851Z,55.08
2016-09-02T13:32:06.413Z,55.08
2016-09-02T13:33:18.697Z,54.89
2016-09-02T13:34:28.862Z,54.86
2016-09-02T13:35:40.472Z,54.93
2016-09-02T13:36:52.044Z,55.13
2016-09-02T13:38:04.328Z,55.22
2016-09-02T13:39:15.907Z,55.2
2016-09-02T13:40:26.770Z,55.2
2016-09-02T13:41:37.626Z,55.18
2016-09-02T13:42:48.504Z,55.37
2016-09-02T13:43:59.379Z,55.73
2016-09-02T13:45:10.997Z,55.83
2016-09-02T13:46:23.274Z,55.51
2016-09-02T13:47:35.547Z,56.07
2016-09-02T13:48:47.125Z,56.62
2016-09-02T13:49:59.415Z,56.5
2016-09-02T13:51:11.005Z,56.76
2016-09-02T13:52:23.298Z,56.45
2016-09-02T13:53:33.458Z,56.51
2016-09-02T13:54:44.337Z,56.29
2016-09-02T13:55:56.157Z,56.2
2016-09-02T13:57:07.746Z,55.98
2016-09-02T13:58:18.596Z,55.98
2016-09-02T13:59:30.152Z,55.68
2016-09-02T14:00:41.716Z,55.65
2016-09-02T14:01:53.985Z,55.36
2016-09-02T14:03:05.565Z,55.24
2016-09-02T14:04:18.631Z,55.53
2016-09-02T14:05:30.203Z,55.41
2016-09-02T14:06:39.695Z,55.5
2016-09-02T14:07:51.980Z,55.41
2016-09-02T14:09:03.553Z,55.5
2016-09-02T14:10:15.204Z,55.08
2016-09-02T14:11:26.761Z,54.5
2016-09-02T14:12:38.323Z,54.8
2016-09-02T14:13:49.895Z,54.5
2016-09-02T14:15:01.464Z,54.41
2016-09-02T14:16:12.240Z,54.31
2016-09-02T14:17:24.521Z,54.21
2016-09-02T14:18:36.089Z,54.21
2016-09-02T14:19:47.664Z,54.02
2016-09-02T14:20:59.955Z,54.11
2016-09-02T14:22:11.517Z,54.41
2016-09-02T14:23:22.383Z,54.41
2016-09-02T14:24:33.951Z,54.5
2016-09-02T14:25:44.108Z,54.5
2016-09-02T14:26:55.215Z,54.31
2016-09-02T14:28:06.070Z,54.21
2016-09-02T14:29:18.353Z,54.41
2016-09-02T14:30:29.928Z,54.14
2016-09-02T14:31:40.107Z,53.95
2016-09-02T14:32:52.379Z,53.66
2016-09-02T14:34:03.964Z,53.85
2016-09-02T14:35:15.647Z,53.95
2016-09-02T14:36:27.680Z,54.14
2016-09-02T14:37:39.963Z,54.14
2016-09-02T14:38:51.527Z,54.14
2016-09-02T14:40:03.243Z,53.95
2016-09-02T14:41:13.421Z,53.95
2016-09-02T14:42:25.692Z,54.24
2016-09-02T14:43:35.867Z,54.24
2016-09-02T14:44:47.422Z,54.34
2016-09-02T14:45:58.989Z,54.05
2016-09-02T14:47:10.559Z,54.14
2016-09-02T14:48:22.128Z,54.14
2016-09-02T14:49:32.289Z,54.05
2016-09-02T14:50:43.859Z,54.14
2016-09-02T14:51:55.480Z,54.14
2016-09-02T14:53:06.359Z,53.95
2016-09-02T14:54:17.930Z,53.97
2016-09-02T14:55:29.496Z,53.78
2016-09-02T14:56:40.369Z,54.36
2016-09-02T14:57:51.967Z,53.88
2016-09-02T14:59:03.529Z,53.49
2016-09-02T15:00:15.120Z,53.59
2016-09-02T15:01:27.386Z,53.88
2016-09-02T15:02:38.963Z,53.59
2016-09-02T15:03:49.833Z,54.49
2016-09-02T15:04:59.997Z,54
2016-09-02T15:06:12.264Z,54.46
2016-09-02T15:07:23.134Z,53.61
2016-09-02T15:08:35.401Z,53.71
2016-09-02T15:09:46.282Z,53.71
2016-09-02T15:10:57.144Z,53.64
2016-09-02T15:12:08.032Z,53.64
2016-09-02T15:13:20.308Z,53.54
2016-09-02T15:14:31.895Z,53.93
2016-09-02T15:15:44.186Z,53.93
2016-09-02T15:16:55.768Z,53.67
2016-09-02T15:18:07.332Z,53.47
2016-09-02T15:19:18.901Z,53.08
2016-09-02T15:20:29.769Z,53.18
2016-09-02T15:21:40.622Z,53.2
2016-09-02T15:22:52.214Z,53.11
2016-09-02T15:24:04.506Z,53.4
2016-09-02T15:25:16.065Z,53.59
2016-09-02T15:26:28.185Z,53.79
2016-09-02T15:27:40.470Z,53.99
2016-09-02T15:28:52.045Z,53.5
2016-09-02T15:30:04.309Z,53.69
2016-09-02T15:31:15.911Z,53.59
2016-09-02T15:32:26.776Z,54.18
2016-09-02T15:33:38.338Z,54.15
2016-09-02T15:34:49.914Z,54.15
2016-09-02T15:36:01.501Z,54.25
2016-09-02T15:37:13.072Z,54.44
2016-09-02T15:38:25.345Z,54.64
2016-09-02T15:39:36.923Z,54.54
2016-09-02T15:40:48.510Z,54.8
2016-09-02T15:42:00.801Z,54.61
2016-09-02T15:43:11.693Z,54.71
2016-09-02T15:44:23.958Z,54.9
2016-09-02T15:45:36.236Z,54.13
2016-09-02T15:46:46.401Z,54.32
2016-09-02T15:47:58.218Z,54.03
2016-09-02T15:49:10.506Z,54.22
2016-09-02T15:50:23.003Z,54.15
2016-09-02T15:51:34.573Z,54.25
2016-09-02T15:52:46.176Z,54.54
2016-09-02T15:53:57.759Z,54.44
2016-09-02T15:55:09.321Z,54.44
2016-09-02T15:56:20.193Z,54.35